createdAt,value
2019-05-03T00:01:52.729Z,15.81
2019-05-03T00:04:44.596Z,15.78
2019-05-03T00:07:35.099Z,15.77
2019-05-03T00:10:24.833Z,15.76
2019-05-03T00:13:14.841Z,15.76
2019-05-03T00:16:12.214Z,15.75
2019-05-03T00:19:03.372Z,15.71
2019-05-03T00:21:53.438Z,15.70
2019-05-03T00:24:43.396Z,15.66
2019-05-03T00:27:33.172Z,15.63
2019-05-03T00:30:23.192Z,15.61
2019-05-03T00:33:13.141Z,15.61
2019-05-03T00:36:25.530Z,15.57
2019-05-03T00:39:38.300Z,15.56
2019-05-03T00:42:28.400Z,15.53
2019-05-03T00:45:18.829Z,15.51
2019-05-03T00:48:08.653Z,15.47
2019-05-03T00:50:58.607Z,15.45
2019-05-03T00:53:48.744Z,15.43
2019-05-03T00:56:38.573Z,15.40
2019-05-03T00:59:28.471Z,15.36
2019-05-03T01:02:19.384Z,15.30
2019-05-03T01:05:11.813Z,15.24
2019-05-03T01:08:02.102Z,15.17
2019-05-03T01:10:51.993Z,15.12
2019-05-03T01:13:42.414Z,15.12
2019-05-03T01:16:32.574Z,15.09
2019-05-03T01:19:22.865Z,15.04
2019-05-03T01:22:13.881Z,15.02
2019-05-03T01:25:05.338Z,14.98
2019-05-03T01:27:55.488Z,14.90
2019-05-03T01:30:46.171Z,14.82
2019-05-03T01:33:36.121Z,14.69
2019-05-03T01:36:26.658Z,14.53
2019-05-03T01:39:16.553Z,14.41
2019-05-03T01:42:06.849Z,14.30
2019-05-03T01:44:57.066Z,14.16
2019-05-03T01:48:05.742Z,14.04
2019-05-03T01:51:12.596Z,13.87
2019-05-03T01:54:02.097Z,13.70
2019-05-03T01:56:58.817Z,13.51
2019-05-03T01:59:45.379Z,13.36
2019-05-03T02:02:53.301Z,13.24
2019-05-03T02:05:44.767Z,13.14
2019-05-03T02:08:34.671Z,13.05
2019-05-03T02:11:25.280Z,12.95
2019-05-03T02:14:15.234Z,12.86
2019-05-03T02:17:05.351Z,12.77
2019-05-03T02:19:55.319Z,12.66
2019-05-03T02:22:45.378Z,12.61
2019-05-03T02:25:35.745Z,12.56
2019-05-03T02:28:27.163Z,12.50
2019-05-03T02:31:17.372Z,12.44
2019-05-03T02:34:07.229Z,12.40
2019-05-03T02:36:58.532Z,12.36
2019-05-03T02:39:55.957Z,12.34
2019-05-03T02:43:06.311Z,12.29
2019-05-03T02:46:09.857Z,12.27
2019-05-03T02:49:06.553Z,12.21
2019-05-03T02:51:56.847Z,12.13
2019-05-03T02:54:46.891Z,12.09
2019-05-03T02:57:37.122Z,12.02
2019-05-03T03:00:58.277Z,11.98
2019-05-03T03:03:48.552Z,11.95
2019-05-03T03:06:42.097Z,11.83
2019-05-03T03:09:32.113Z,11.76
2019-05-03T03:12:25.747Z,11.69
2019-05-03T03:15:17.183Z,11.65
2019-05-03T03:18:09.998Z,11.59
2019-05-03T03:21:01.665Z,11.56
2019-05-03T03:24:08.129Z,11.54
2019-05-03T03:27:01.643Z,11.50
2019-05-03T03:30:02.147Z,11.47
2019-05-03T03:32:51.617Z,11.44
2019-05-03T03:35:48.398Z,11.44
2019-05-03T03:38:36.004Z,11.44
2019-05-03T03:41:27.204Z,11.47
2019-05-03T03:44:20.220Z,11.47
2019-05-03T03:47:16.551Z,11.48
2019-05-03T03:50:06.895Z,11.49
2019-05-03T03:53:00.825Z,11.44
2019-05-03T03:55:52.601Z,11.43
2019-05-03T03:58:46.176Z,11.40
2019-05-03T04:01:35.153Z,11.37
2019-05-03T04:04:26.237Z,11.35
2019-05-03T04:07:16.708Z,11.35
2019-05-03T04:10:09.786Z,11.37
2019-05-03T04:13:00.458Z,11.38
2019-05-03T04:15:57.949Z,11.38
2019-05-03T04:18:56.774Z,11.39
2019-05-03T04:21:47.043Z,11.40
2019-05-03T04:24:37.314Z,11.38
2019-05-03T04:27:29.082Z,11.40
2019-05-03T04:30:19.265Z,11.42
2019-05-03T04:33:08.938Z,11.41
2019-05-03T04:35:58.991Z,11.44
2019-05-03T04:38:49.067Z,11.45
2019-05-03T04:41:39.394Z,11.46
2019-05-03T04:44:29.644Z,11.45
2019-05-03T04:47:19.754Z,11.41
2019-05-03T04:50:10.350Z,11.35
2019-05-03T04:53:00.583Z,11.29
2019-05-03T04:55:50.172Z,11.27
2019-05-03T04:58:40.195Z,11.28
2019-05-03T05:01:30.038Z,11.20
2019-05-03T05:04:20.018Z,11.13
2019-05-03T05:07:10.164Z,11.04
2019-05-03T05:10:00.219Z,11.01
2019-05-03T05:12:50.222Z,11.01
2019-05-03T05:15:40.211Z,10.99
2019-05-03T05:18:35.670Z,11.00
2019-05-03T05:21:29.661Z,10.99
2019-05-03T05:24:19.827Z,10.97
2019-05-03T05:27:16.020Z,11.01
2019-05-03T05:30:08.633Z,11.02
2019-05-03T05:32:59.333Z,11.00
2019-05-03T05:35:50.155Z,11.02
2019-05-03T05:38:40.281Z,11.03
2019-05-03T05:41:30.335Z,11.01
2019-05-03T05:44:20.111Z,11.00
2019-05-03T05:47:28.136Z,10.98
2019-05-03T05:50:22.819Z,11.00
2019-05-03T05:53:12.552Z,11.03
2019-05-03T05:56:24.952Z,11.06
2019-05-03T05:59:36.847Z,11.11
2019-05-03T06:02:26.074Z,11.09
2019-05-03T06:05:15.771Z,11.10
2019-05-03T06:08:31.057Z,11.13
2019-05-03T06:11:38.741Z,11.15
2019-05-03T06:14:34.656Z,11.13
2019-05-03T06:17:34.959Z,11.09
2019-05-03T06:20:35.161Z,11.07
2019-05-03T06:23:32.322Z,11.08
2019-05-03T06:26:39.740Z,11.09
2019-05-03T06:29:29.406Z,11.14
2019-05-03T06:32:27.233Z,11.19
2019-05-03T06:35:17.057Z,11.24
2019-05-03T06:38:07.025Z,11.27
2019-05-03T06:40:57.059Z,11.30
2019-05-03T06:43:48.773Z,11.32
2019-05-03T06:46:46.141Z,11.33
2019-05-03T06:49:39.242Z,11.34
2019-05-03T06:52:29.440Z,11.31
2019-05-03T06:55:19.383Z,11.35
2019-05-03T06:58:08.928Z,11.38
2019-05-03T07:01:20.615Z,11.44
2019-05-03T07:04:18.393Z,11.45
2019-05-03T07:07:28.150Z,11.47
2019-05-03T07:10:40.191Z,11.45
2019-05-03T07:13:30.228Z,11.45
2019-05-03T07:16:20.048Z,11.49
2019-05-03T07:19:09.926Z,11.54
2019-05-03T07:22:00.014Z,11.61
2019-05-03T07:24:49.828Z,11.69
2019-05-03T07:27:39.632Z,11.75
2019-05-03T07:30:29.472Z,11.86
2019-05-03T07:33:28.128Z,11.96
2019-05-03T07:36:18.354Z,12.05
2019-05-03T07:39:09.360Z,12.16
2019-05-03T07:41:59.486Z,12.21
2019-05-03T07:44:49.355Z,12.20
2019-05-03T07:47:39.320Z,12.20
2019-05-03T07:50:29.268Z,12.14
2019-05-03T07:53:20.577Z,12.10
2019-05-03T07:56:15.560Z,12.00
2019-05-03T07:59:06.986Z,12.01
2019-05-03T08:01:58.607Z,12.01
2019-05-03T08:04:48.370Z,12.00
2019-05-03T08:07:38.240Z,12.02
2019-05-03T08:10:27.810Z,12.03
2019-05-03T08:13:17.616Z,12.04
2019-05-03T08:16:07.603Z,12.03
2019-05-03T08:18:57.721Z,12.00
2019-05-03T08:21:47.987Z,12.00
2019-05-03T08:24:37.753Z,12.04
2019-05-03T08:27:27.346Z,12.14
2019-05-03T08:30:22.657Z,12.27
2019-05-03T08:33:24.965Z,12.36
2019-05-03T08:36:15.689Z,12.42
2019-05-03T08:39:06.659Z,12.48
2019-05-03T08:41:59.316Z,12.52
2019-05-03T08:44:49.498Z,12.52
2019-05-03T08:47:39.441Z,12.50
2019-05-03T08:50:29.822Z,12.50
2019-05-03T08:53:20.078Z,12.47
2019-05-03T08:56:09.757Z,12.44
2019-05-03T08:58:59.575Z,12.41
2019-05-03T09:01:49.736Z,12.41
2019-05-03T09:04:43.062Z,12.44
2019-05-03T09:07:31.497Z,12.46
2019-05-03T09:10:29.689Z,12.52
2019-05-03T09:13:20.567Z,12.61
2019-05-03T09:16:10.363Z,12.73
2019-05-03T09:19:00.307Z,12.80
2019-05-03T09:21:50.241Z,12.89
2019-05-03T09:24:40.291Z,12.96
2019-05-03T09:27:30.235Z,12.99
2019-05-03T09:30:20.925Z,13.04
2019-05-03T09:33:10.957Z,13.08
2019-05-03T09:36:00.508Z,13.11
2019-05-03T09:38:50.333Z,13.17
2019-05-03T09:41:40.287Z,13.15
2019-05-03T09:44:30.055Z,13.20
2019-05-03T09:47:19.721Z,13.28
2019-05-03T09:50:09.479Z,13.38
2019-05-03T09:52:59.630Z,13.45
2019-05-03T09:55:49.352Z,13.54
2019-05-03T09:58:39.045Z,13.65
2019-05-03T10:01:29.437Z,13.82
2019-05-03T10:04:19.147Z,14.01
2019-05-03T10:07:09.017Z,14.20
2019-05-03T10:09:59.530Z,14.44
2019-05-03T10:12:49.354Z,14.72
2019-05-03T10:15:41.385Z,15.02
2019-05-03T10:18:32.221Z,15.27
2019-05-03T10:21:25.801Z,15.62
2019-05-03T10:24:15.400Z,16.13
2019-05-03T10:27:05.776Z,16.46
2019-05-03T10:30:09.540Z,16.53
2019-05-03T10:32:51.941Z,16.55
2019-05-03T10:35:41.963Z,16.51
2019-05-03T10:38:32.038Z,16.50
2019-05-03T10:41:22.146Z,16.40
2019-05-03T10:44:11.834Z,16.51
2019-05-03T10:47:02.015Z,16.95
2019-05-03T10:49:52.113Z,17.45
2019-05-03T10:52:47.637Z,17.59
2019-05-03T10:55:37.381Z,17.56
2019-05-03T10:58:27.050Z,17.28
2019-05-03T11:01:18.444Z,17.02
2019-05-03T11:04:08.572Z,16.79
2019-05-03T11:06:58.395Z,16.56
2019-05-03T11:09:52.379Z,16.38
2019-05-03T11:12:40.553Z,16.37
2019-05-03T11:15:30.855Z,16.41
2019-05-03T11:18:20.796Z,16.51
2019-05-03T11:21:10.307Z,16.73
2019-05-03T11:24:00.162Z,16.89
2019-05-03T11:26:52.076Z,16.94
2019-05-03T11:29:41.937Z,17.07
2019-05-03T11:32:44.760Z,17.21
2019-05-03T11:36:04.318Z,17.53
2019-05-03T11:38:55.842Z,18.09
2019-05-03T11:41:48.971Z,18.38
2019-05-03T11:44:41.025Z,18.28
2019-05-03T11:47:30.864Z,17.99
2019-05-03T11:50:20.915Z,17.62
2019-05-03T11:53:10.359Z,17.28
2019-05-03T11:56:00.457Z,17.02
2019-05-03T11:58:50.597Z,16.86
2019-05-03T12:01:51.711Z,16.76
2019-05-03T12:04:40.831Z,16.79
2019-05-03T12:07:39.896Z,16.96
2019-05-03T12:10:36.512Z,16.99
2019-05-03T12:13:22.160Z,16.96
2019-05-03T12:16:20.627Z,16.89
2019-05-03T12:19:16.512Z,16.81
2019-05-03T12:21:57.623Z,16.74
2019-05-03T12:24:48.586Z,16.65
2019-05-03T12:27:38.883Z,16.55
2019-05-03T12:30:28.883Z,16.46
2019-05-03T12:33:18.838Z,16.51
2019-05-03T12:36:09.050Z,16.51
2019-05-03T12:38:58.710Z,16.62
2019-05-03T12:41:48.289Z,16.66
2019-05-03T12:44:38.263Z,16.66
2019-05-03T12:47:27.977Z,16.67
2019-05-03T12:50:18.204Z,16.64
2019-05-03T12:53:08.243Z,16.67
2019-05-03T12:55:58.418Z,16.81
2019-05-03T12:59:02.781Z,16.87
2019-05-03T13:02:07.574Z,16.91
2019-05-03T13:04:57.299Z,16.96
2019-05-03T13:08:01.941Z,16.99
2019-05-03T13:10:51.847Z,16.99
2019-05-03T13:13:42.035Z,16.94
2019-05-03T13:16:32.142Z,16.84
2019-05-03T13:19:22.242Z,16.86
2019-05-03T13:22:12.111Z,16.94
2019-05-03T13:25:02.283Z,17.09
2019-05-03T13:27:54.659Z,17.19
2019-05-03T13:30:45.254Z,17.20
2019-05-03T13:33:35.758Z,17.19
2019-05-03T13:36:25.732Z,17.04
2019-05-03T13:39:16.008Z,16.89
2019-05-03T13:42:06.295Z,16.78
2019-05-03T13:44:56.624Z,16.69
2019-05-03T13:47:46.828Z,16.70
2019-05-03T13:50:36.901Z,16.77
2019-05-03T13:53:27.146Z,16.83
2019-05-03T13:56:17.461Z,16.87
2019-05-03T13:59:18.552Z,16.92
2019-05-03T14:02:12.448Z,17.03
2019-05-03T14:04:52.954Z,17.11
2019-05-03T14:07:44.706Z,17.21
2019-05-03T14:10:35.960Z,17.31
2019-05-03T14:13:25.715Z,17.36
2019-05-03T14:16:16.118Z,17.39
2019-05-03T14:19:14.572Z,17.37
2019-05-03T14:22:07.676Z,17.35
2019-05-03T14:24:57.798Z,17.24
2019-05-03T14:27:47.815Z,17.21
2019-05-03T14:30:37.582Z,17.12
2019-05-03T14:33:28.411Z,16.94
2019-05-03T14:36:18.606Z,16.82
2019-05-03T14:39:10.542Z,13.99
2019-05-03T14:41:59.950Z,16.67
2019-05-03T14:44:49.755Z,16.61
2019-05-03T14:47:39.236Z,16.59
2019-05-03T14:50:29.194Z,16.54
2019-05-03T14:53:18.577Z,16.54
2019-05-03T14:56:18.501Z,16.49
2019-05-03T14:59:45.795Z,16.49
2019-05-03T15:02:58.059Z,16.51
2019-05-03T15:05:47.898Z,16.51
2019-05-03T15:08:37.777Z,16.50
2019-05-03T15:11:28.108Z,16.58
2019-05-03T15:14:17.944Z,16.65
2019-05-03T15:17:08.064Z,16.74
2019-05-03T15:19:58.355Z,16.78
2019-05-03T15:22:48.428Z,16.80
2019-05-03T15:25:38.112Z,16.75
2019-05-03T15:28:29.528Z,16.75
2019-05-03T15:31:18.639Z,16.75
2019-05-03T15:34:08.721Z,16.72
2019-05-03T15:36:58.686Z,16.74
2019-05-03T15:39:48.291Z,16.76
2019-05-03T15:42:40.405Z,16.78
2019-05-03T15:45:40.718Z,16.81
2019-05-03T15:48:35.133Z,16.81
2019-05-03T15:51:25.132Z,16.64
2019-05-03T15:54:15.428Z,16.59
2019-05-03T15:57:05.322Z,16.48
2019-05-03T15:59:55.569Z,16.36
2019-05-03T16:02:45.692Z,16.25
2019-05-03T16:05:35.745Z,16.18
2019-05-03T16:08:26.965Z,16.15
2019-05-03T16:11:17.133Z,16.13
2019-05-03T16:14:07.424Z,16.14
2019-05-03T16:16:57.511Z,16.14
2019-05-03T16:19:47.714Z,16.15
2019-05-03T16:22:38.253Z,16.14
2019-05-03T16:25:28.178Z,16.11
2019-05-03T16:28:27.410Z,16.09
2019-05-03T16:31:20.196Z,16.03
2019-05-03T16:34:09.544Z,16.02
2019-05-03T16:37:00.513Z,15.98
2019-05-03T16:39:50.413Z,15.95
2019-05-03T16:42:40.653Z,15.91
2019-05-03T16:45:30.704Z,15.90
2019-05-03T16:48:20.805Z,15.91
2019-05-03T16:51:10.992Z,15.84
2019-05-03T16:54:01.328Z,15.79
2019-05-03T16:56:51.317Z,15.74
2019-05-03T16:59:41.423Z,15.70
2019-05-03T17:02:31.256Z,15.63
2019-05-03T17:05:46.034Z,15.54
2019-05-03T17:08:56.785Z,15.48
2019-05-03T17:11:58.428Z,15.37
2019-05-03T17:14:54.359Z,15.33
2019-05-03T17:17:45.242Z,15.28
2019-05-03T17:20:35.077Z,15.28
2019-05-03T17:23:24.649Z,15.25
2019-05-03T17:26:14.966Z,15.23
2019-05-03T17:29:05.783Z,15.21
2019-05-03T17:31:55.825Z,15.18
2019-05-03T17:34:45.471Z,15.14
2019-05-03T17:37:36.516Z,15.04
2019-05-03T17:40:35.131Z,15.01
2019-05-03T17:43:28.882Z,14.97
2019-05-03T17:46:18.715Z,14.88
2019-05-03T17:49:08.950Z,14.88
2019-05-03T17:52:20.303Z,14.85
2019-05-03T17:55:28.887Z,14.78
2019-05-03T17:58:37.523Z,14.75
2019-05-03T18:01:45.670Z,14.74
2019-05-03T18:05:09.757Z,14.71
2019-05-03T18:08:17.843Z,14.69
2019-05-03T18:11:14.780Z,14.64
2019-05-03T18:14:05.566Z,14.61
2019-05-03T18:16:55.831Z,14.59
2019-05-03T18:19:47.857Z,14.58
2019-05-03T18:22:37.842Z,14.54
2019-05-03T18:25:27.644Z,14.50
2019-05-03T18:28:18.108Z,14.46
2019-05-03T18:31:08.837Z,14.42
2019-05-03T18:33:58.565Z,14.41
2019-05-03T18:36:48.947Z,14.37
2019-05-03T18:39:38.884Z,14.34
2019-05-03T18:42:35.252Z,14.30
2019-05-03T18:45:36.866Z,14.25
2019-05-03T18:48:26.830Z,14.21
2019-05-03T18:51:16.649Z,14.18
2019-05-03T18:54:07.306Z,14.12
2019-05-03T18:56:58.027Z,14.03
2019-05-03T18:59:48.095Z,13.97
2019-05-03T19:02:37.731Z,13.92
2019-05-03T19:05:28.645Z,13.89
2019-05-03T19:08:35.110Z,13.85
2019-05-03T19:11:46.729Z,13.82
2019-05-03T19:14:36.336Z,13.78
2019-05-03T19:17:44.309Z,13.72
2019-05-03T19:20:35.257Z,13.68
2019-05-03T19:23:25.049Z,13.60
2019-05-03T19:26:14.609Z,13.51
2019-05-03T19:29:04.718Z,13.49
2019-05-03T19:31:55.303Z,13.46
2019-05-03T19:34:51.044Z,13.42
2019-05-03T19:37:37.029Z,13.36
2019-05-03T19:40:27.706Z,13.30
2019-05-03T19:43:17.867Z,13.24
2019-05-03T19:46:07.646Z,13.17
2019-05-03T19:48:58.850Z,13.12
2019-05-03T19:51:48.489Z,13.09
2019-05-03T19:54:37.678Z,13.02
2019-05-03T19:57:32.450Z,12.97
2019-05-03T20:00:25.552Z,12.89
2019-05-03T20:03:19.703Z,12.85
2019-05-03T20:06:31.584Z,12.79
2019-05-03T20:09:24.434Z,12.73
2019-05-03T20:12:15.220Z,12.64
2019-05-03T20:15:06.833Z,12.57
2019-05-03T20:18:00.187Z,12.54
2019-05-03T20:20:48.738Z,12.53
2019-05-03T20:23:38.900Z,12.52
2019-05-03T20:26:28.720Z,12.54
2019-05-03T20:29:18.415Z,12.53
2019-05-03T20:32:08.199Z,12.55
2019-05-03T20:35:10.557Z,12.55
2019-05-03T20:37:49.507Z,12.56
2019-05-03T20:40:39.541Z,12.57
2019-05-03T20:43:39.038Z,12.58
2019-05-03T20:46:46.890Z,12.57
2019-05-03T20:49:36.829Z,12.57
2019-05-03T20:52:26.797Z,12.56
2019-05-03T20:55:16.680Z,12.57
2019-05-03T20:58:08.391Z,12.60
2019-05-03T21:00:57.715Z,12.63
2019-05-03T21:03:47.848Z,12.66
2019-05-03T21:06:38.134Z,12.68
2019-05-03T21:09:27.957Z,12.68
2019-05-03T21:12:17.379Z,12.69
2019-05-03T21:15:10.214Z,12.69
2019-05-03T21:18:16.905Z,12.69
2019-05-03T21:21:11.726Z,12.69
2019-05-03T21:24:07.177Z,12.68
2019-05-03T21:26:57.484Z,12.69
2019-05-03T21:29:55.119Z,12.68
2019-05-03T21:32:45.012Z,12.66
2019-05-03T21:35:41.441Z,12.66
2019-05-03T21:38:26.762Z,12.65
2019-05-03T21:41:16.752Z,12.65
2019-05-03T21:44:06.817Z,12.62
2019-05-03T21:46:56.853Z,12.58
2019-05-03T21:49:46.988Z,12.57
2019-05-03T21:52:37.018Z,12.54
2019-05-03T21:55:26.898Z,12.51
2019-05-03T21:58:16.793Z,12.48
2019-05-03T22:01:09.173Z,12.41
2019-05-03T22:03:58.639Z,12.39
2019-05-03T22:06:48.875Z,12.36
2019-05-03T22:09:39.114Z,12.32
2019-05-03T22:12:28.803Z,12.30
2019-05-03T22:15:42.980Z,12.28
2019-05-03T22:18:34.961Z,12.27
2019-05-03T22:21:30.206Z,12.20
2019-05-03T22:24:32.237Z,12.18
2019-05-03T22:27:24.515Z,12.16
2019-05-03T22:30:14.586Z,12.11
2019-05-03T22:33:05.246Z,12.08
2019-05-03T22:36:07.866Z,12.05
2019-05-03T22:38:47.340Z,12.03
2019-05-03T22:41:36.962Z,11.99
2019-05-03T22:44:26.807Z,11.96
2019-05-03T22:47:16.711Z,11.96
2019-05-03T22:50:06.310Z,11.98
2019-05-03T22:52:56.032Z,11.98
2019-05-03T22:55:46.103Z,11.99
2019-05-03T22:58:36.229Z,11.99
2019-05-03T23:01:26.211Z,11.98
2019-05-03T23:04:16.160Z,11.96
2019-05-03T23:07:06.206Z,11.96
2019-05-03T23:09:56.224Z,11.94
2019-05-03T23:12:46.420Z,11.94
2019-05-03T23:15:36.312Z,11.96
2019-05-03T23:18:26.768Z,11.96
2019-05-03T23:21:20.875Z,11.96
2019-05-03T23:24:11.138Z,11.95
2019-05-03T23:27:00.821Z,11.99
2019-05-03T23:29:50.777Z,11.99
2019-05-03T23:32:40.816Z,12.02
2019-05-03T23:35:30.614Z,12.04
2019-05-03T23:38:20.660Z,12.04
2019-05-03T23:41:11.436Z,12.01
2019-05-03T23:44:01.250Z,12.01
2019-05-03T23:47:14.582Z,11.98
2019-05-03T23:50:06.468Z,11.97
2019-05-03T23:52:56.366Z,11.95
2019-05-03T23:55:50.411Z,11.95
2019-05-03T23:58:40.148Z,11.98
